Time;durP1;ratioP1;P1;durP2;ratioP2;P2;SDS_P1;SDS_P2;PMS_P1;PMS_P2;Temp;Humidity;BMP_temperature;BMP_pressure;BME280_temperature;BME280_humidity;BME280_pressure;Samples;Min_cycle;Max_cycle;Signal;HPM_P1;HPM_P2
2020/12/18 00:01:00;;;;;;;21.37;13.03;;;2.60;99.90;;;3.59;64.62;94941.88;4890374;29;20208;-83
2020/12/18 00:03:26;;;;;;;17.47;12.40;;;2.60;99.90;;;3.52;64.14;94938.47;4918353;29;20254;-83
2020/12/18 00:05:54;;;;;;;19.60;12.60;;;2.50;99.90;;;3.46;64.45;94954.13;4900412;29;20717;-84
2020/12/18 00:08:33;;;;;;;17.77;12.30;;;2.50;99.90;;;3.48;64.26;94952.13;4918238;29;20191;-84
2020/12/18 00:11:25;;;;;;;19.30;12.30;;;2.50;99.90;;;3.51;64.64;94949.13;4918506;29;20203;-84
2020/12/18 00:13:59;;;;;;;19.77;13.63;;;2.50;99.90;;;3.50;64.74;94957.97;4923292;29;20223;-84
2020/12/18 00:17:17;;;;;;;18.57;13.07;;;2.50;99.90;;;3.71;64.94;94959.69;4907986;28;20633;-84
2020/12/18 00:19:45;;;;;;;19.97;13.23;;;2.60;99.90;;;3.58;64.57;94950.78;4922354;29;20239;-84
2020/12/18 00:22:21;;;;;;;18.73;13.10;;;2.60;99.90;;;3.73;64.73;94962.94;4922154;29;20291;-84
2020/12/18 00:24:59;;;;;;;21.87;14.10;;;2.70;99.90;;;3.79;65.09;94947.22;4918259;29;20251;-84
2020/12/18 00:27:49;;;;;;;19.00;13.20;;;2.80;99.90;;;3.58;65.19;94942.91;4922480;29;20199;-84
2020/12/18 00:30:27;;;;;;;19.60;13.90;;;2.60;99.90;;;3.56;64.63;94944.91;4926711;29;20204;-84
2020/12/18 00:33:11;;;;;;;18.87;14.23;;;2.60;99.90;;;3.64;65.24;94946.56;4917492;29;20196;-85
2020/12/18 00:35:46;;;;;;;18.00;12.50;;;2.70;99.90;;;3.76;65.32;94954.69;4887463;29;20254;-84
2020/12/18 00:38:51;;;;;;;17.50;13.10;;;2.70;99.90;;;3.72;65.23;94959.50;4915666;29;20183;-84
2020/12/18 00:41:17;;;;;;;18.27;12.03;;;2.70;99.90;;;3.87;65.35;94954.09;4935651;29;20192;-84
2020/12/18 00:43:54;;;;;;;14.40;10.40;;;2.80;99.90;;;3.84;65.22;94947.44;4921177;29;20624;-84
2020/12/18 00:46:35;;;;;;;17.63;12.07;;;2.90;99.90;;;3.88;65.12;94953.09;4921163;29;20183;-83
2020/12/18 00:49:18;;;;;;;19.67;13.37;;;2.80;99.90;;;3.94;65.09;94941.81;4921506;29;20699;-83
2020/12/18 00:51:43;;;;;;;18.20;13.03;;;2.90;99.90;;;3.88;65.10;94938.19;4937502;29;20304;-83
2020/12/18 00:54:13;;;;;;;17.27;12.07;;;2.90;99.90;;;3.81;65.30;94942.59;4891683;28;20191;-83
2020/12/18 00:56:43;;;;;;;15.30;11.77;;;2.70;99.90;;;3.79;65.41;94931.50;5032607;28;20244;-83
2020/12/18 00:59:16;;;;;;;14.17;10.93;;;2.70;99.90;;;3.90;65.59;94933.53;5005660;28;20185;-83
2020/12/18 01:01:44;;;;;;;15.07;10.70;;;2.80;99.90;;;4.01;65.82;94930.34;4998970;28;20217;-83
2020/12/18 01:04:12;;;;;;;15.20;11.13;;;3.00;99.90;;;4.02;65.46;94933.78;4998957;28;20204;-83
2020/12/18 01:06:38;;;;;;;14.97;11.83;;;3.00;99.90;;;3.88;65.66;94927.69;4982517;28;20547;-83
2020/12/18 01:09:23;;;;;;;18.00;12.40;;;2.90;99.90;;;3.90;65.96;94948.44;4997749;28;20358;-83
2020/12/18 01:11:50;;;;;;;17.53;13.03;;;2.90;99.90;;;3.97;65.89;94938.78;4999173;28;20186;-82
2020/12/18 01:14:22;;;;;;;20.70;13.70;;;2.90;99.90;;;3.95;65.63;94925.88;4999400;28;20186;-83
2020/12/18 01:16:56;;;;;;;19.03;12.07;;;2.90;99.90;;;3.93;65.79;94933.13;5010986;28;20181;-83
2020/12/18 01:19:50;;;;;;;17.40;12.30;;;2.90;99.90;;;3.75;65.94;94930.28;4972882;28;20675;-83
2020/12/18 01:22:27;;;;;;;18.10;12.07;;;2.70;99.90;;;3.81;66.15;94931.28;4924447;29;20218;-83
2020/12/18 01:25:12;;;;;;;18.17;12.23;;;2.70;99.90;;;3.81;65.65;94950.44;4948721;28;20203;-83
2020/12/18 01:27:40;;;;;;;14.60;11.23;;;2.80;99.90;;;3.81;66.23;94953.06;4934749;29;20246;-83
2020/12/18 01:30:05;;;;;;;16.73;11.70;;;2.80;99.90;;;3.83;65.93;94953.66;4942569;29;20732;-83
2020/12/18 01:32:33;;;;;;;15.90;11.30;;;2.80;99.90;;;3.92;66.02;94942.03;4936905;29;20275;-83
2020/12/18 01:35:16;;;;;;;16.70;11.83;;;3.00;99.90;;;4.04;66.07;94942.22;4953827;28;20196;-83
2020/12/18 01:37:56;;;;;;;14.27;10.57;;;3.00;99.90;;;4.04;66.40;94932.56;4941587;29;20206;-83
2020/12/18 01:40:29;;;;;;;14.27;10.80;;;3.00;99.90;;;3.99;66.34;94936.78;4953925;28;20921;-84
2020/12/18 01:42:59;;;;;;;13.60;10.40;;;2.90;99.90;;;4.08;66.12;94946.09;4923045;29;20233;-83
2020/12/18 01:45:26;;;;;;;14.30;9.97;;;3.00;99.90;;;4.11;66.16;94943.88;4923679;29;20336;-84
2020/12/18 01:48:27;;;;;;;14.33;9.97;;;3.00;99.90;;;4.18;66.40;94958.81;4969811;28;20192;-84
2020/12/18 01:51:15;;;;;;;12.53;9.43;;;3.10;99.90;;;4.18;66.48;94961.44;4870307;29;20197;-83
2020/12/18 01:53:43;;;;;;;12.50;9.23;;;3.20;99.90;;;4.20;66.51;94962.06;4879360;29;20202;-83
2020/12/18 01:56:21;;;;;;;12.87;9.37;;;3.30;99.90;;;4.25;66.66;94963.06;4876523;29;20214;-84
2020/12/18 01:59:06;;;;;;;12.03;9.40;;;3.30;99.90;;;4.27;66.50;94961.03;4891673;29;20375;-83
2020/12/18 02:01:35;;;;;;;13.67;9.90;;;3.40;99.90;;;4.36;67.11;94964.31;4909094;29;20303;-83
2020/12/18 02:04:03;;;;;;;13.90;9.80;;;3.30;99.90;;;4.30;66.55;94959.84;4889404;29;20621;-83
2020/12/18 02:06:30;;;;;;;13.37;9.67;;;3.30;99.90;;;4.24;66.41;94960.63;4908630;29;20203;-83
2020/12/18 02:09:15;;;;;;;11.33;8.90;;;3.30;99.90;;;4.29;66.98;94973.97;4888409;29;20682;-83
2020/12/18 02:11:41;;;;;;;12.70;9.20;;;3.30;99.90;;;4.44;66.59;94967.53;4920723;29;20286;-83
2020/12/18 02:14:45;;;;;;;12.27;9.47;;;3.40;99.90;;;4.71;66.94;94963.09;4924543;29;20775;-83
2020/12/18 02:17:15;;;;;;;10.37;8.43;;;3.60;99.90;;;4.60;66.86;94945.31;4882860;29;20280;-82
2020/12/18 02:20:14;;;;;;;12.93;9.20;;;3.60;99.90;;;4.45;66.80;94942.09;4881871;29;20607;-83
2020/12/18 02:22:48;;;;;;;11.33;9.43;;;3.50;99.90;;;4.51;66.99;94941.28;4826989;29;20268;-83
2020/12/18 02:25:44;;;;;;;13.33;9.17;;;3.50;99.90;;;4.41;67.38;94960.06;4861862;29;20225;-83
2020/12/18 02:28:12;;;;;;;13.30;9.50;;;3.40;99.90;;;4.33;67.01;94943.72;4823894;29;20211;-83
2020/12/18 02:30:46;;;;;;;11.97;9.00;;;3.30;99.90;;;4.08;67.07;94940.84;4801322;29;20224;-82
2020/12/18 02:33:33;;;;;;;13.50;10.00;;;3.20;99.90;;;3.87;67.23;94948.84;4826214;29;20355;-83
2020/12/18 02:36:28;;;;;;;15.40;11.23;;;2.90;99.90;;;3.87;67.32;94941.78;4817211;29;20195;-83
2020/12/18 02:39:16;;;;;;;11.33;9.17;;;2.80;99.90;;;3.74;67.18;94938.31;4802588;29;20274;-82
2020/12/18 02:41:56;;;;;;;13.70;9.67;;;2.80;99.90;;;3.63;67.22;94950.16;4849164;29;20578;-83
2020/12/18 02:44:36;;;;;;;13.33;10.80;;;2.60;99.90;;;3.53;66.74;94942.69;4822263;29;20222;-83
2020/12/18 02:47:49;;;;;;;13.07;9.57;;;2.60;99.90;;;3.35;67.31;94942.41;4839590;29;20223;-83
2020/12/18 02:50:33;;;;;;;12.67;9.47;;;2.50;99.90;;;3.39;66.69;94955.94;4844535;29;20203;-83
2020/12/18 02:53:12;;;;;;;13.73;9.73;;;2.40;99.90;;;3.48;67.02;94955.56;4843718;29;20198;-83
2020/12/18 02:55:37;;;;;;;11.57;9.03;;;2.50;99.90;;;3.40;67.46;94941.81;4860155;29;20288;-83
2020/12/18 03:02:02;;;;;;;14.10;9.30;;;2.30;99.90;;;3.31;67.01;94940.38;4841396;29;20195;-83
2020/12/18 03:04:28;;;;;;;14.27;9.30;;;2.30;99.90;;;3.19;67.19;94928.81;4843051;29;20638;-82
2020/12/18 03:06:54;;;;;;;11.87;9.90;;;2.20;99.90;;;3.14;67.45;94933.81;4828919;29;20698;-83
2020/12/18 03:09:32;;;;;;;13.27;9.90;;;2.10;99.90;;;2.99;66.84;94929.50;4849016;29;20279;-83
2020/12/18 03:12:07;;;;;;;16.50;11.00;;;2.00;99.90;;;2.85;67.23;94940.09;4894293;29;20229;-83
2020/12/18 03:14:41;;;;;;;13.27;10.40;;;1.80;99.90;;;2.93;67.73;94950.41;4874021;29;20692;-83
2020/12/18 03:17:24;;;;;;;15.07;11.00;;;1.80;99.90;;;2.94;67.68;94946.78;4878266;29;20197;-83
2020/12/18 03:19:51;;;;;;;13.97;10.80;;;1.80;99.90;;;2.90;67.69;94929.84;4862398;29;20744;-83
2020/12/18 03:22:18;;;;;;;16.37;11.00;;;1.80;99.90;;;2.95;67.40;94928.28;4849206;29;20206;-83
2020/12/18 03:24:44;;;;;;;15.80;10.63;;;1.90;99.90;;;2.90;67.70;94919.38;4847403;29;20225;-83
2020/12/18 03:27:12;;;;;;;16.03;10.63;;;1.80;99.90;;;2.89;67.94;94897.63;4878224;29;20207;-83
2020/12/18 03:29:48;;;;;;;15.23;10.83;;;1.90;99.90;;;2.98;67.87;94917.44;4915058;29;20196;-82
2020/12/18 03:32:24;;;;;;;14.20;10.77;;;1.90;99.90;;;2.92;67.67;94918.19;4917989;29;20208;-83
2020/12/18 03:35:05;;;;;;;17.10;10.47;;;1.90;99.90;;;2.88;67.69;94922.22;4929836;28;20287;-83
2020/12/18 03:37:35;;;;;;;14.87;10.33;;;1.90;99.90;;;2.71;67.89;94917.44;4980027;28;20181;-83
2020/12/18 03:40:05;;;;;;;14.73;10.83;;;1.70;99.90;;;2.68;67.62;94910.81;5012539;28;20199;-83
2020/12/18 03:42:59;;;;;;;16.37;10.60;;;1.70;99.90;;;2.57;68.05;94927.81;4975954;28;20244;-83
2020/12/18 03:45:44;;;;;;;17.67;10.60;;;1.60;99.90;;;2.50;67.76;94932.19;4922128;29;20214;-83
2020/12/18 03:48:24;;;;;;;14.10;9.70;;;1.50;99.90;;;2.47;68.30;94929.97;4947742;28;20527;-83
2020/12/18 03:51:08;;;;;;;13.57;10.40;;;1.40;99.90;;;2.35;67.82;94933.28;4916547;29;20192;-83
2020/12/18 03:53:49;;;;;;;14.83;10.47;;;1.30;99.90;;;2.19;68.14;94936.94;4937026;28;20190;-83
2020/12/18 03:56:16;;;;;;;15.47;11.40;;;1.20;99.90;;;2.08;67.85;94943.47;4947542;28;20229;-83
2020/12/18 03:58:42;;;;;;;18.33;11.20;;;1.20;99.90;;;2.08;67.56;94945.31;4972198;28;20187;-82
2020/12/18 04:01:08;;;;;;;16.73;10.70;;;1.10;99.90;;;2.16;68.27;94933.91;4950836;28;20670;-83
2020/12/18 04:03:36;;;;;;;15.17;10.40;;;1.30;99.90;;;2.32;68.42;94938.88;4970887;28;20242;-83
2020/12/18 04:06:02;;;;;;;14.27;10.13;;;1.30;99.90;;;2.11;67.39;94941.50;4949343;28;20192;-83
2020/12/18 04:08:29;;;;;;;15.00;10.43;;;1.00;99.90;;;2.03;67.99;94945.03;4972953;28;20199;-83
2020/12/18 04:11:24;;;;;;;15.43;10.70;;;1.10;99.90;;;2.13;67.84;94956.00;4945275;28;20706;-82
2020/12/18 04:14:20;;;;;;;16.53;11.07;;;1.00;99.90;;;2.13;68.21;94948.16;4896101;29;20200;-83
2020/12/18 04:17:05;;;;;;;14.17;10.27;;;1.10;99.90;;;2.01;67.56;94937.38;4898020;29;20196;-83
2020/12/18 04:19:33;;;;;;;16.13;10.63;;;1.00;99.90;;;2.06;67.88;94935.03;4918662;29;20232;-83
2020/12/18 04:22:09;;;;;;;17.87;11.27;;;1.10;99.90;;;1.95;68.19;94929.47;4903139;29;20219;-84
2020/12/18 04:24:38;;;;;;;16.83;11.00;;;0.90;99.90;;;1.89;68.25;94930.22;4888696;29;20239;-83
2020/12/18 04:27:03;;;;;;;16.30;11.23;;;0.90;99.90;;;1.83;68.36;94937.00;4915831;29;20326;-83
2020/12/18 04:29:55;;;;;;;15.67;11.17;;;0.80;99.90;;;1.91;68.41;94936.91;4923492;29;20295;-83
2020/12/18 04:32:21;;;;;;;18.00;11.93;;;0.80;99.90;;;1.91;68.84;94936.91;4903068;29;20199;-84
2020/12/18 04:34:55;;;;;;;15.93;11.43;;;0.90;99.90;;;1.96;68.10;94949.41;4887013;29;20189;-84
2020/12/18 04:38:16;;;;;;;15.40;10.80;;;0.90;99.90;;;1.91;68.61;94938.69;4902686;29;20628;-84
2020/12/18 04:40:44;;;;;;;21.03;14.00;;;0.80;99.90;;;1.81;68.92;94938.19;4916978;29;20196;-83
2020/12/18 04:43:12;;;;;;;20.97;13.00;;;0.70;99.90;;;1.79;68.35;94935.75;4902674;29;20681;-83
2020/12/18 04:46:05;;;;;;;20.17;13.27;;;0.70;99.90;;;1.77;68.92;94942.97;4918808;29;20223;-83
2020/12/18 04:48:51;;;;;;;17.50;12.30;;;0.70;99.90;;;1.71;68.33;94942.91;4918215;29;20195;-83
2020/12/18 04:51:25;;;;;;;19.33;12.57;;;0.70;99.90;;;1.69;68.59;94939.66;4989158;28;20212;-83
2020/12/18 04:54:01;;;;;;;16.93;12.17;;;0.60;99.90;;;1.62;68.50;94936.16;5017710;28;20188;-83
2020/12/18 04:56:39;;;;;;;16.47;11.50;;;0.70;99.90;;;1.67;68.58;94949.50;4981828;28;20181;-83
2020/12/18 05:00:09;;;;;;;19.23;11.60;;;0.60;99.90;;;1.63;68.27;94950.84;4995610;28;20660;-83
2020/12/18 05:02:36;;;;;;;17.03;11.50;;;0.50;99.90;;;1.66;68.61;94943.44;5015853;28;20216;-83
2020/12/18 05:05:02;;;;;;;17.00;11.63;;;0.60;99.90;;;1.58;68.33;94935.72;4999366;28;20205;-83
2020/12/18 05:07:28;;;;;;;17.17;10.90;;;0.50;99.90;;;1.50;68.15;94928.00;4998940;28;20216;-83
2020/12/18 05:09:55;;;;;;;15.80;10.83;;;0.50;99.90;;;1.33;68.89;94930.00;4998142;28;20227;-83
2020/12/18 05:12:22;;;;;;;16.80;11.20;;;0.40;99.90;;;1.41;68.55;94950.78;5003805;28;20205;-83
2020/12/18 05:14:52;;;;;;;16.97;12.10;;;0.40;99.90;;;1.34;68.90;94941.28;4986984;28;20199;-83
2020/12/18 05:17:20;;;;;;;15.33;10.57;;;0.30;99.90;;;1.38;68.48;94947.72;4982407;28;20691;-83
2020/12/18 05:20:05;;;;;;;18.20;11.70;;;0.30;99.90;;;1.45;69.01;94938.19;4998465;28;20706;-82
2020/12/18 05:23:00;;;;;;;16.67;12.00;;;0.40;99.90;;;1.43;68.47;94946.22;4997510;28;20212;-82
2020/12/18 05:26:05;;;;;;;15.80;11.23;;;0.40;99.90;;;1.38;68.74;94945.94;4905467;29;20437;-84
2020/12/18 05:28:43;;;;;;;15.37;10.03;;;0.40;99.90;;;1.36;69.54;94950.53;4920166;29;20721;-85
2020/12/18 05:31:18;;;;;;;18.63;12.10;;;0.30;99.90;;;1.31;68.59;94939.81;4912590;29;20673;-85
2020/12/18 05:34:14;;;;;;;17.90;12.00;;;0.30;99.90;;;1.28;68.84;94932.34;4945349;29;20179;-86
2020/12/18 05:36:48;;;;;;;14.47;10.50;;;0.20;99.90;;;1.39;69.35;94947.56;4839234;29;20229;-82
2020/12/18 05:39:23;;;;;;;17.73;11.60;;;0.30;99.90;;;1.46;69.11;94939.81;4830638;29;20198;-80
2020/12/18 05:42:04;;;;;;;17.60;12.20;;;0.40;99.90;;;1.30;69.02;94943.44;4844698;29;20250;-81
2020/12/18 05:44:40;;;;;;;17.67;12.20;;;0.30;99.90;;;1.35;68.94;94948.09;4829221;29;20694;-81
2020/12/18 05:47:14;;;;;;;21.93;13.53;;;0.20;99.90;;;1.35;69.02;94953.31;4845001;29;20726;-81
2020/12/18 05:50:17;;;;;;;17.50;11.97;;;0.20;99.90;;;1.38;68.80;94963.41;4829870;29;20753;-80
2020/12/18 05:53:22;;;;;;;17.17;12.10;;;0.20;99.90;;;1.30;69.52;94955.69;4844484;29;20292;-82
2020/12/18 05:55:58;;;;;;;16.63;11.07;;;0.20;99.90;;;1.27;69.36;94958.66;4841719;29;20210;-84
2020/12/18 05:58:29;;;;;;;17.13;11.93;;;0.20;99.90;;;1.32;68.57;94954.50;4843722;29;20673;-83
2020/12/18 06:01:03;;;;;;;17.03;12.10;;;0.20;99.90;;;1.22;69.07;94950.53;4848630;29;20306;-82
2020/12/18 06:03:41;;;;;;;18.23;11.83;;;0.10;99.90;;;1.29;69.25;94956.66;4853874;29;20217;-82
2020/12/18 06:06:15;;;;;;;18.27;11.57;;;0.20;99.90;;;1.34;69.45;94955.13;4859897;29;20596;-86
2020/12/18 06:08:56;;;;;;;16.23;10.97;;;0.40;99.90;;;1.33;69.34;94955.31;4849793;29;20213;-84
2020/12/18 06:11:35;;;;;;;18.20;11.83;;;0.20;99.90;;;1.25;69.50;94958.00;4866404;29;20689;-83
2020/12/18 06:14:21;;;;;;;20.90;12.43;;;0.20;99.90;;;1.27;69.58;94953.44;4943830;29;20202;-85
2020/12/18 06:16:53;;;;;;;16.33;11.60;;;0.20;99.90;;;1.19;69.26;94949.09;4942631;29;20214;-87
2020/12/18 06:19:21;;;;;;;19.37;12.10;;;0.20;99.90;;;1.17;69.64;94964.16;4939191;28;20187;-82
2020/12/18 06:21:59;;;;;;;16.10;11.03;;;0.10;99.90;;;1.02;69.81;94969.34;4946306;28;20226;-83
2020/12/18 06:24:52;;;;;;;22.30;15.25;;;0.00;99.90;;;1.00;69.53;94953.09;4952692;28;20955;-83
2020/12/18 06:27:29;;;;;;;18.73;12.33;;;0.00;99.90;;;0.97;69.26;94966.47;4957807;28;20198;-83
2020/12/18 06:30:09;;;;;;;19.33;12.47;;;0.00;99.90;;;1.03;69.27;94954.53;4939556;29;20681;-84
2020/12/18 06:32:45;;;;;;;19.53;12.43;;;0.00;99.90;;;1.01;69.48;94957.28;4989737;28;20679;-84
2020/12/18 06:35:37;;;;;;;18.03;11.80;;;0.10;99.90;;;1.13;69.97;94957.66;4984822;28;20188;-84
2020/12/18 06:38:15;;;;;;;17.77;10.27;;;0.10;99.90;;;1.22;69.75;94953.97;4988986;28;20178;-85
2020/12/18 06:40:51;;;;;;;14.23;9.73;;;0.20;99.90;;;1.16;70.00;94946.88;5008197;28;20192;-84
2020/12/18 06:43:44;;;;;;;16.93;11.00;;;0.10;99.90;;;1.24;69.65;94944.16;4998809;28;20643;-84
2020/12/18 06:46:12;;;;;;;15.50;10.40;;;0.10;99.90;;;1.26;70.16;94944.78;5003245;28;20181;-86
2020/12/18 06:48:54;;;;;;;14.37;10.40;;;0.10;99.90;;;1.26;69.65;94947.41;4998669;28;20195;-85
2020/12/18 06:51:28;;;;;;;15.83;9.37;;;0.30;99.90;;;1.20;69.45;94949.91;5014227;28;20281;-85
2020/12/18 06:54:08;;;;;;;15.57;9.87;;;0.10;99.90;;;1.09;69.54;94945.97;5002130;28;20171;-85
2020/12/18 06:56:37;;;;;;;15.93;10.27;;;0.00;99.90;;;1.11;69.83;94943.19;4993686;28;20200;-85
2020/12/18 06:59:51;;;;;;;12.80;9.57;;;0.00;99.90;;;1.28;70.46;94957.63;4997843;28;20215;-84
2020/12/18 07:02:41;;;;;;;15.20;9.47;;;0.10;99.90;;;1.20;70.34;94937.69;4930096;29;20211;-84
2020/12/18 07:05:37;;;;;;;16.23;10.83;;;0.10;99.90;;;1.31;69.94;94946.88;4948459;29;20215;-85
2020/12/18 07:08:13;;;;;;;14.93;10.20;;;0.20;99.90;;;1.37;70.27;94946.94;4943966;29;20311;-84
2020/12/18 07:10:45;;;;;;;19.33;11.23;;;0.20;99.90;;;1.35;70.18;94953.31;4919911;29;20863;-84
2020/12/18 07:13:22;;;;;;;17.67;14.67;;;0.20;99.90;;;1.45;69.76;94959.06;4923410;29;20198;-85
2020/12/18 07:16:18;;;;;;;16.20;10.03;;;0.20;99.90;;;1.42;70.39;94965.47;4918619;29;20323;-86
2020/12/18 07:18:50;;;;;;;14.80;10.00;;;0.30;99.90;;;1.47;70.24;94949.25;4943377;29;20365;-86
2020/12/18 07:21:19;;;;;;;16.57;9.47;;;0.30;99.90;;;1.55;70.47;94959.59;4910402;29;20194;-85
2020/12/18 07:23:55;;;;;;;15.17;10.80;;;0.40;99.90;;;1.59;70.33;94960.03;4920823;29;20212;-87
2020/12/18 07:26:33;;;;;;;15.83;10.07;;;0.40;99.90;;;1.64;69.78;94955.91;4917757;29;20211;-87
2020/12/18 07:29:01;;;;;;;16.93;9.83;;;0.50;99.90;;;1.77;70.37;94961.28;4923817;29;20218;-86
2020/12/18 07:31:33;;;;;;;15.17;9.73;;;0.50;99.90;;;1.77;70.65;94950.81;4921497;29;20711;-84
2020/12/18 07:34:02;;;;;;;14.43;8.90;;;0.60;99.90;;;1.73;70.47;94946.94;4914551;29;20222;-83
2020/12/18 07:36:31;;;;;;;13.60;9.47;;;0.60;99.90;;;1.78;70.78;94954.25;4944667;29;20630;-85
2020/12/18 07:38:58;;;;;;;14.63;9.60;;;0.60;99.90;;;1.75;70.65;94955.41;4973631;28;20219;-82
2020/12/18 07:41:34;;;;;;;14.30;9.43;;;0.60;99.90;;;1.79;70.14;94951.44;4983190;28;20177;-82
2020/12/18 07:44:08;;;;;;;13.60;10.07;;;0.70;99.90;;;1.80;70.89;94953.06;4962992;28;20201;-82
2020/12/18 07:46:55;;;;;;;13.67;9.57;;;0.70;99.90;;;2.21;70.40;94976.81;4978222;28;20621;-82
2020/12/18 07:49:28;;;;;;;9.33;7.77;;;0.90;99.90;;;2.52;70.71;94950.31;4962904;28;20177;-83
2020/12/18 07:51:59;;;;;;;10.90;7.80;;;1.30;99.90;;;2.54;70.44;94932.63;4966741;28;20173;-82
2020/12/18 07:54:54;;;;;;;10.63;7.43;;;1.40;99.90;;;2.71;71.12;94973.22;5021116;28;20292;-82
2020/12/18 07:57:20;;;;;;;9.87;7.13;;;1.50;99.90;;;4.47;71.20;95005.69;4996061;28;20176;-86
2020/12/18 07:59:47;;;;;;;7.53;6.03;;;2.70;99.90;;;7.15;71.34;95011.13;5002780;28;20185;-84
2020/12/18 08:02:26;;;;;;;6.57;5.27;;;5.30;99.90;;;9.70;72.29;95011.41;4982216;28;20194;-86
2020/12/18 08:05:00;;;;;;;6.13;4.80;;;7.70;99.90;;;11.43;72.56;94989.75;4961506;28;20215;-83
2020/12/18 08:07:33;;;;;;;5.53;4.63;;;9.50;99.90;;;13.35;72.75;94995.50;5012384;28;20206;-84
2020/12/18 08:10:04;;;;;;;4.97;4.33;;;11.60;99.90;;;15.10;71.83;94995.81;4975096;28;20187;-84
2020/12/18 08:12:50;;;;;;;5.57;4.30;;;13.90;99.90;;;16.41;71.72;95022.44;4980318;28;20189;-84
2020/12/18 08:15:17;;;;;;;7.17;5.00;;;15.80;99.90;;;17.15;71.84;94973.38;5012565;28;20557;-84
2020/12/18 08:17:51;;;;;;;5.57;4.47;;;16.90;96.90;;;18.27;71.36;94977.47;4980292;28;20190;-84
2020/12/18 08:20:30;;;;;;;7.63;4.87;;;18.20;92.10;;;18.73;70.99;94956.28;4983908;28;20200;-82
2020/12/18 08:22:59;;;;;;;5.00;4.60;;;19.10;87.20;;;19.38;70.81;94951.00;4988324;28;20182;-82
2020/12/18 08:25:38;;;;;;;5.20;4.17;;;20.00;82.70;;;20.84;70.24;94999.50;4993412;28;20199;-81
2020/12/18 08:28:06;;;;;;;6.27;5.17;;;21.40;78.60;;;22.04;69.84;94912.53;5008627;28;20194;-82
2020/12/18 08:30:36;;;;;;;11.25;10.25;;;22.60;72.40;;;22.59;69.60;94921.81;4977765;28;20477;-82
2020/12/18 08:33:32;;;;;;;7.33;6.63;;;23.60;67.50;;;23.25;69.34;94976.63;4963073;28;20663;-84
2020/12/18 08:36:06;;;;;;;6.40;5.90;;;24.30;63.70;;;23.28;68.70;94917.28;5000501;28;20558;-83
2020/12/18 08:39:07;;;;;;;5.07;4.67;;;24.80;61.60;;;24.18;68.56;94961.44;4997488;28;20193;-81
2020/12/18 08:41:51;;;;;;;4.67;4.27;;;25.60;59.10;;;24.11;67.83;94976.59;5003723;28;20184;-84
2020/12/18 08:44:58;;;;;;;5.00;4.60;;;25.80;58.10;;;24.95;67.31;95006.44;4997405;28;20207;-83
2020/12/18 08:48:08;;;;;;;5.30;4.80;;;26.60;57.10;;;25.91;66.75;94932.09;4973547;28;20197;-83
2020/12/18 08:50:44;;;;;;;4.33;3.93;;;27.80;57.40;;;24.96;66.23;94834.41;4985348;28;20256;-82
2020/12/18 08:53:15;;;;;;;4.20;3.90;;;27.90;56.00;;;26.53;65.50;94889.16;4977098;28;20228;-83
2020/12/18 08:56:02;;;;;;;3.73;3.43;;;28.60;54.90;;;27.50;65.33;95002.59;4995181;28;20196;-82
2020/12/18 08:58:33;;;;;;;4.00;3.60;;;29.40;51.80;;;28.14;64.25;94914.50;4978207;28;20203;-82
2020/12/18 09:01:01;;;;;;;4.60;4.23;;;30.20;50.80;;;28.57;64.28;94892.59;4978892;28;20188;-83
2020/12/18 09:03:51;;;;;;;4.40;4.10;;;30.80;50.20;;;28.75;63.37;94999.47;4962371;28;20190;-81
2020/12/18 09:07:20;;;;;;;4.40;4.10;;;31.30;48.60;;;29.52;62.54;95025.13;4978415;28;20216;-83
2020/12/18 09:09:53;;;;;;;4.30;4.00;;;31.90;48.00;;;29.75;62.13;94903.00;4994541;28;20284;-82
2020/12/18 09:12:19;;;;;;;4.03;3.73;;;32.50;46.60;;;29.97;61.95;94885.88;4978857;28;20696;-83
2020/12/18 09:14:50;;;;;;;4.40;4.00;;;32.60;46.10;;;29.92;60.94;94899.03;4978929;28;20202;-86
2020/12/18 09:17:19;;;;;;;4.87;4.10;;;32.70;46.40;;;29.34;60.35;94865.50;4965519;28;20193;-81
2020/12/18 09:20:06;;;;;;;3.80;3.50;;;32.70;45.60;;;28.97;59.95;94982.47;4982708;28;20668;-82
2020/12/18 09:22:56;;;;;;;3.73;3.43;;;32.60;45.10;;;28.38;59.44;95007.84;5013494;28;20185;-81
2020/12/18 09:26:00;;;;;;;4.20;3.67;;;32.10;45.20;;;28.84;58.78;95032.84;5000905;28;20219;-81
2020/12/18 09:28:54;;;;;;;3.63;3.33;;;32.30;45.10;;;28.38;58.48;94961.47;4997657;28;20589;-81
2020/12/18 09:31:23;;;;;;;3.70;3.40;;;32.30;44.70;;;28.62;58.21;94903.22;4990386;28;20211;-81
2020/12/18 09:33:59;;;;;;;3.83;3.53;;;32.30;44.60;;;28.64;57.24;94976.56;4996759;28;20205;-81
2020/12/18 09:36:45;;;;;;;3.43;3.13;;;32.40;44.70;;;28.70;56.99;94994.28;4973433;28;20279;-81
2020/12/18 09:39:12;;;;;;;3.40;3.13;;;32.40;44.20;;;29.17;56.40;94942.34;4982695;28;20268;-82
2020/12/18 09:42:06;;;;;;;3.20;2.90;;;32.70;44.30;;;30.84;55.75;95041.09;4999792;28;20178;-84
2020/12/18 09:44:32;;;;;;;3.27;3.00;;;33.70;43.40;;;32.19;55.08;94952.59;4949722;29;20196;-82
2020/12/18 09:47:06;;;;;;;3.33;3.13;;;34.70;42.90;;;31.19;55.16;94878.47;4935994;29;20219;-82
2020/12/18 09:49:57;;;;;;;3.00;2.80;;;34.60;41.80;;;31.34;54.18;95061.91;4931686;29;20198;-81
2020/12/18 09:52:41;;;;;;;3.20;3.00;;;34.60;42.50;;;31.78;53.69;94982.66;4938889;29;20175;-80
2020/12/18 09:55:56;;;;;;;3.30;3.10;;;35.10;41.80;;;32.03;53.22;95011.19;4936003;29;20232;-83
2020/12/18 09:58:22;;;;;;;3.43;3.13;;;35.30;41.50;;;32.89;52.88;94941.50;4843555;29;20203;-81
2020/12/18 10:00:57;;;;;;;5.13;3.23;;;35.90;42.20;;;33.93;52.20;94969.28;4860129;29;20613;-81
2020/12/18 10:03:38;;;;;;;3.37;3.07;;;36.70;41.30;;;34.24;51.75;94916.34;4843501;29;20202;-81
2020/12/18 10:06:05;;;;;;;3.80;3.50;;;37.10;40.50;;;34.24;51.32;94897.06;4853893;29;20191;-82
2020/12/18 10:08:33;;;;;;;3.73;3.43;;;37.20;40.70;;;33.77;50.71;94823.00;4853306;29;20210;-81
2020/12/18 10:10:59;;;;;;;3.77;3.47;;;36.80;40.40;;;33.45;50.17;94851.16;4829384;29;20179;-82
2020/12/18 10:13:34;;;;;;;4.17;3.87;;;36.20;40.50;;;32.26;49.64;94939.75;4814531;29;20199;-81
2020/12/18 10:16:11;;;;;;;4.07;3.77;;;35.50;41.50;;;33.02;49.29;94899.59;4844993;29;20209;-81
2020/12/18 10:18:40;;;;;;;4.20;3.83;;;36.00;41.10;;;33.58;48.49;94862.59;4827183;29;20201;-81
2020/12/18 10:21:20;;;;;;;3.70;3.40;;;36.70;41.00;;;32.30;48.84;94860.19;4869565;29;20208;-81
2020/12/18 10:23:55;;;;;;;3.97;3.57;;;36.10;40.10;;;32.91;47.87;94967.44;4899656;29;20200;-80
2020/12/18 10:26:47;;;;;;;10.30;4.30;;;36.10;40.80;;;33.47;47.74;94961.59;4902979;29;20189;-81
2020/12/18 10:29:23;;;;;;;3.70;3.33;;;36.60;40.10;;;33.34;47.39;94916.31;4901212;29;20204;-80
2020/12/18 10:31:59;;;;;;;4.47;3.43;;;36.70;40.20;;;34.30;46.65;94936.78;4908652;29;20221;-80
2020/12/18 10:34:30;;;;;;;4.03;3.63;;;37.30;40.20;;;34.38;46.60;94825.47;4928044;28;20224;-83
2020/12/18 10:37:06;;;;;;;4.50;4.10;;;37.40;38.70;;;34.26;45.78;94987.50;4981464;28;20280;-85
2020/12/18 10:40:07;;;;;;;3.80;3.50;;;37.50;39.70;;;35.13;45.53;94955.78;4987795;28;20212;-82
2020/12/18 10:42:34;;;;;;;3.90;3.60;;;37.70;38.70;;;33.96;44.80;94855.66;4996702;28;20212;-81
2020/12/18 10:45:02;;;;;;;3.73;3.40;;;36.70;39.30;;;31.45;44.75;94746.84;4980678;28;20180;-80
2020/12/18 10:47:28;;;;;;;3.60;3.30;;;35.10;40.10;;;29.86;44.79;94862.22;4980182;28;20443;-81
2020/12/18 10:50:21;;;;;;;4.53;3.00;;;34.60;40.70;;;32.58;44.13;95036.19;4999724;28;20200;-81
2020/12/18 10:52:48;;;;;;;3.93;2.97;;;35.60;40.70;;;34.16;43.74;94887.19;4974511;28;20198;-82
2020/12/18 10:55:48;;;;;;;3.27;2.60;;;36.70;39.90;;;34.33;42.94;94976.53;4940835;28;20211;-81
2020/12/18 10:58:32;;;;;;;2.93;2.73;;;37.10;38.90;;;34.95;43.25;94903.38;4916515;29;20200;-84
2020/12/18 11:01:17;;;;;;;2.70;2.50;;;38.00;38.90;;;35.43;42.43;94934.06;4889806;29;20644;-81
2020/12/18 11:03:45;;;;;;;4.37;2.77;;;38.30;38.30;;;35.38;42.21;94884.84;4902525;29;20764;-81
2020/12/18 11:06:13;;;;;;;2.80;2.20;;;38.60;38.40;;;36.11;41.87;94849.06;4919355;29;20610;-81
2020/12/18 11:08:45;;;;;;;2.70;2.40;;;39.10;38.10;;;36.21;41.82;94878.59;4885603;29;21120;-81
2020/12/18 11:11:13;;;;;;;2.77;2.57;;;39.30;37.30;;;36.10;41.29;94836.44;4915171;29;20213;-82